sensor_id;sensor_type;location;lat;lon;timestamp;pressure;altitude;pressure_sealevel;temperature;humidity
3260;BME280;22469;48.150;14.004;2023-02-12T00:01:23;99886.22;;;8.12;62.07
3260;BME280;22469;48.150;14.004;2023-02-12T00:03:51;99887.09;;;8.11;62.35
3260;BME280;22469;48.150;14.004;2023-02-12T00:06:19;99891.13;;;7.89;63.65
3260;BME280;22469;48.150;14.004;2023-02-12T00:08:49;99891.22;;;8.00;63.56
3260;BME280;22469;48.150;14.004;2023-02-12T00:11:26;99889.59;;;8.03;63.73
3260;BME280;22469;48.150;14.004;2023-02-12T00:13:54;99886.22;;;8.07;63.42
3260;BME280;22469;48.150;14.004;2023-02-12T00:16:26;99885.78;;;7.65;65.29
3260;BME280;22469;48.150;14.004;2023-02-12T00:18:55;99892.69;;;7.73;65.48
3260;BME280;22469;48.150;14.004;2023-02-12T00:21:24;99891.06;;;7.81;65.80
3260;BME280;22469;48.150;14.004;2023-02-12T00:23:51;99881.94;;;8.08;64.71
3260;BME280;22469;48.150;14.004;2023-02-12T00:26:20;99881.75;;;7.90;66.25
3260;BME280;22469;48.150;14.004;2023-02-12T00:28:49;99886.16;;;8.01;65.83
3260;BME280;22469;48.150;14.004;2023-02-12T00:31:20;99878.47;;;8.03;66.14
3260;BME280;22469;48.150;14.004;2023-02-12T00:33:49;99876.88;;;8.16;65.32
3260;BME280;22469;48.150;14.004;2023-02-12T00:36:19;99883.50;;;7.91;67.05
3260;BME280;22469;48.150;14.004;2023-02-12T00:38:50;99893.59;;;7.77;68.60
3260;BME280;22469;48.150;14.004;2023-02-12T00:41:19;99886.88;;;7.90;68.42
3260;BME280;22469;48.150;14.004;2023-02-12T00:43:47;99885.84;;;7.72;69.99
3260;BME280;22469;48.150;14.004;2023-02-12T00:46:14;99898.56;;;7.63;70.34
3260;BME280;22469;48.150;14.004;2023-02-12T00:48:43;99894.44;;;7.77;70.21
3260;BME280;22469;48.150;14.004;2023-02-12T00:51:11;99898.66;;;7.74;71.00
3260;BME280;22469;48.150;14.004;2023-02-12T00:53:38;99894.22;;;7.56;71.68
3260;BME280;22469;48.150;14.004;2023-02-12T00:56:06;99883.34;;;7.75;70.73
3260;BME280;22469;48.150;14.004;2023-02-12T00:58:33;99883.56;;;7.97;69.49
3260;BME280;22469;48.150;14.004;2023-02-12T01:01:00;99886.78;;;7.79;70.19
3260;BME280;22469;48.150;14.004;2023-02-12T01:03:27;99892.75;;;7.76;70.16
3260;BME280;22469;48.150;14.004;2023-02-12T01:05:54;99894.56;;;7.93;69.54
3260;BME280;22469;48.150;14.004;2023-02-12T01:08:23;99897.94;;;7.89;69.55
3260;BME280;22469;48.150;14.004;2023-02-12T01:10:56;99903.75;;;7.72;70.73
3260;BME280;22469;48.150;14.004;2023-02-12T01:13:31;99909.59;;;7.62;71.60
3260;BME280;22469;48.150;14.004;2023-02-12T01:16:14;99907.00;;;7.57;71.92
3260;BME280;22469;48.150;14.004;2023-02-12T01:18:46;99908.00;;;7.70;71.31
3260;BME280;22469;48.150;14.004;2023-02-12T01:21:21;99909.78;;;7.79;71.05
3260;BME280;22469;48.150;14.004;2023-02-12T01:23:50;99915.78;;;7.86;70.32
3260;BME280;22469;48.150;14.004;2023-02-12T01:26:18;99909.13;;;8.00;69.63
3260;BME280;22469;48.150;14.004;2023-02-12T01:28:58;99912.66;;;8.11;69.24
3260;BME280;22469;48.150;14.004;2023-02-12T01:31:29;99904.16;;;8.14;69.04
3260;BME280;22469;48.150;14.004;2023-02-12T01:34:00;99902.41;;;8.13;69.38
3260;BME280;22469;48.150;14.004;2023-02-12T01:36:29;99896.34;;;8.00;69.07
3260;BME280;22469;48.150;14.004;2023-02-12T01:38:56;99887.47;;;7.61;70.73
3260;BME280;22469;48.150;14.004;2023-02-12T01:41:37;99891.00;;;7.74;70.56
3260;BME280;22469;48.150;14.004;2023-02-12T01:44:19;99879.16;;;7.80;70.17
3260;BME280;22469;48.150;14.004;2023-02-12T01:47:02;99886.59;;;7.59;70.81
3260;BME280;22469;48.150;14.004;2023-02-12T01:49:35;99883.31;;;7.69;70.80
3260;BME280;22469;48.150;14.004;2023-02-12T01:52:27;99879.91;;;7.72;70.72
3260;BME280;22469;48.150;14.004;2023-02-12T01:55:00;99875.50;;;7.57;70.89
3260;BME280;22469;48.150;14.004;2023-02-12T01:57:32;99876.34;;;7.57;70.77
3260;BME280;22469;48.150;14.004;2023-02-12T02:00:04;99877.28;;;7.63;70.66
3260;BME280;22469;48.150;14.004;2023-02-12T02:02:34;99884.06;;;7.60;71.02
3260;BME280;22469;48.150;14.004;2023-02-12T02:05:03;99869.72;;;7.73;70.13
3260;BME280;22469;48.150;14.004;2023-02-12T02:07:31;99874.59;;;7.49;71.40
3260;BME280;22469;48.150;14.004;2023-02-12T02:09:59;99874.78;;;7.70;70.30
3260;BME280;22469;48.150;14.004;2023-02-12T02:12:29;99888.56;;;7.89;69.44
3260;BME280;22469;48.150;14.004;2023-02-12T02:15:15;99878.38;;;7.92;69.16
3260;BME280;22469;48.150;14.004;2023-02-12T02:17:59;99879.94;;;7.75;69.29
3260;BME280;22469;48.150;14.004;2023-02-12T02:37:34;99902.66;;;8.40;66.58
3260;BME280;22469;48.150;14.004;2023-02-12T02:40:13;99905.31;;;8.51;66.35
3260;BME280;22469;48.150;14.004;2023-02-12T02:42:59;99901.88;;;8.50;65.88
3260;BME280;22469;48.150;14.004;2023-02-12T02:45:34;99902.78;;;8.52;65.59
3260;BME280;22469;48.150;14.004;2023-02-12T02:51:24;99895.97;;;8.58;66.12
3260;BME280;22469;48.150;14.004;2023-02-12T02:54:15;99880.66;;;8.59;65.78
3260;BME280;22469;48.150;14.004;2023-02-12T02:56:51;99879.81;;;8.59;65.49
3260;BME280;22469;48.150;14.004;2023-02-12T02:59:28;99889.19;;;8.63;65.46
3260;BME280;22469;48.150;14.004;2023-02-12T03:02:09;99890.94;;;8.65;65.69
3260;BME280;22469;48.150;14.004;2023-02-12T03:04:45;99894.34;;;8.66;65.45
3260;BME280;22469;48.150;14.004;2023-02-12T03:07:28;99904.56;;;8.67;65.40
3260;BME280;22469;48.150;14.004;2023-02-12T03:10:02;99908.88;;;8.73;65.31
3260;BME280;22469;48.150;14.004;2023-02-12T03:12:40;99910.56;;;8.74;65.17
3260;BME280;22469;48.150;14.004;2023-02-12T03:15:43;99909.72;;;8.75;64.97
3260;BME280;22469;48.150;14.004;2023-02-12T03:18:22;99906.28;;;8.67;65.35
3260;BME280;22469;48.150;14.004;2023-02-12T03:21:02;99911.41;;;8.71;65.15
3260;BME280;22469;48.150;14.004;2023-02-12T03:24:04;99914.00;;;8.77;65.17
3260;BME280;22469;48.150;14.004;2023-02-12T03:26:52;99915.72;;;8.80;64.81
3260;BME280;22469;48.150;14.004;2023-02-12T03:29:23;99908.06;;;8.80;64.74
3260;BME280;22469;48.150;14.004;2023-02-12T03:34:49;99913.13;;;8.74;64.90
3260;BME280;22469;48.150;14.004;2023-02-12T03:37:27;99913.13;;;8.71;65.55
3260;BME280;22469;48.150;14.004;2023-02-12T03:45:54;99931.81;;;8.64;66.01
3260;BME280;22469;48.150;14.004;2023-02-12T03:48:32;99937.81;;;8.67;66.24
3260;BME280;22469;48.150;14.004;2023-02-12T03:51:43;99950.66;;;8.75;65.97
3260;BME280;22469;48.150;14.004;2023-02-12T03:54:14;99955.81;;;8.80;65.74
3260;BME280;22469;48.150;14.004;2023-02-12T03:57:25;99946.44;;;8.82;65.83
3260;BME280;22469;48.150;14.004;2023-02-12T03:59:46;99950.66;;;8.72;66.26
3260;BME280;22469;48.150;14.004;2023-02-12T04:02:15;99958.31;;;8.70;66.45
3260;BME280;22469;48.150;14.004;2023-02-12T04:04:45;99955.72;;;8.67;66.82
3260;BME280;22469;48.150;14.004;2023-02-12T04:07:13;99954.88;;;8.65;67.05
3260;BME280;22469;48.150;14.004;2023-02-12T04:09:41;99953.13;;;8.60;67.09
3260;BME280;22469;48.150;14.004;2023-02-12T04:12:12;99949.72;;;8.59;67.08
3260;BME280;22469;48.150;14.004;2023-02-12T04:15:41;99950.56;;;8.61;67.19
3260;BME280;22469;48.150;14.004;2023-02-12T04:18:20;99951.38;;;8.52;67.80
3260;BME280;22469;48.150;14.004;2023-02-12T04:32:17;99955.25;;;8.12;70.03
3260;BME280;22469;48.150;14.004;2023-02-12T04:35:11;99950.75;;;7.87;70.99
3260;BME280;22469;48.150;14.004;2023-02-12T04:37:49;99952.28;;;7.71;71.56
3260;BME280;22469;48.150;14.004;2023-02-12T04:40:20;99950.69;;;7.82;71.06
3260;BME280;22469;48.150;14.004;2023-02-12T04:42:49;99961.44;;;7.55;71.91
3260;BME280;22469;48.150;14.004;2023-02-12T04:45:29;99956.28;;;7.49;72.69
3260;BME280;22469;48.150;14.004;2023-02-12T04:47:59;99963.22;;;7.60;72.89
3260;BME280;22469;48.150;14.004;2023-02-12T04:50:40;99956.03;;;7.30;72.83
3260;BME280;22469;48.150;14.004;2023-02-12T04:53:09;99957.88;;;7.41;73.42
3260;BME280;22469;48.150;14.004;2023-02-12T04:55:36;99955.63;;;7.67;71.88
3260;BME280;22469;48.150;14.004;2023-02-12T04:58:04;99967.59;;;7.71;71.76
3260;BME280;22469;48.150;14.004;2023-02-12T05:00:31;99974.22;;;7.55;72.21
3260;BME280;22469;48.150;14.004;2023-02-12T05:02:59;99970.88;;;7.60;72.14
3260;BME280;22469;48.150;14.004;2023-02-12T05:05:26;99970.19;;;7.74;71.39
3260;BME280;22469;48.150;14.004;2023-02-12T05:07:53;99977.66;;;7.57;72.31
3260;BME280;22469;48.150;14.004;2023-02-12T05:10:20;99980.03;;;7.45;72.74
3260;BME280;22469;48.150;14.004;2023-02-12T05:12:47;99988.78;;;7.64;71.96
3260;BME280;22469;48.150;14.004;2023-02-12T05:15:14;99992.00;;;7.47;72.85
3260;BME280;22469;48.150;14.004;2023-02-12T05:17:41;99996.34;;;7.54;72.16
3260;BME280;22469;48.150;14.004;2023-02-12T05:20:09;99988.88;;;7.70;71.25
3260;BME280;22469;48.150;14.004;2023-02-12T05:22:36;99984.53;;;7.63;71.60
3260;BME280;22469;48.150;14.004;2023-02-12T05:25:04;99994.41;;;7.35;72.82
3260;BME280;22469;48.150;14.004;2023-02-12T05:27:31;99988.63;;;7.51;72.32
3260;BME280;22469;48.150;14.004;2023-02-12T05:29:58;99990.84;;;7.24;73.18
3260;BME280;22469;48.150;14.004;2023-02-12T05:32:25;99992.63;;;7.31;73.21
3260;BME280;22469;48.150;14.004;2023-02-12T05:34:52;100000.06;;;7.14;73.94
3260;BME280;22469;48.150;14.004;2023-02-12T05:37:19;100004.50;;;7.27;73.59
3260;BME280;22469;48.150;14.004;2023-02-12T05:39:48;100008.16;;;7.48;72.64
3260;BME280;22469;48.150;14.004;2023-02-12T05:42:16;100012.69;;;7.69;71.47
3260;BME280;22469;48.150;14.004;2023-02-12T05:44:43;100012.00;;;7.82;70.92
3260;BME280;22469;48.150;14.004;2023-02-12T05:47:10;100012.09;;;7.91;70.64
3260;BME280;22469;48.150;14.004;2023-02-12T05:49:37;100018.09;;;7.96;70.08
3260;BME280;22469;48.150;14.004;2023-02-12T05:52:04;100017.38;;;8.05;69.95
3260;BME280;22469;48.150;14.004;2023-02-12T05:54:31;100016.56;;;8.09;69.36
3260;BME280;22469;48.150;14.004;2023-02-12T05:56:58;100020.81;;;8.10;69.51
3260;BME280;22469;48.150;14.004;2023-02-12T05:59:25;100021.69;;;8.12;69.28
3260;BME280;22469;48.150;14.004;2023-02-12T06:01:52;100027.66;;;8.11;69.42
3260;BME280;22469;48.150;14.004;2023-02-12T06:04:25;100031.09;;;8.16;69.22
3260;BME280;22469;48.150;14.004;2023-02-12T06:06:55;100033.66;;;8.15;69.01
3260;BME280;22469;48.150;14.004;2023-02-12T06:09:22;100034.56;;;8.20;69.01
3260;BME280;22469;48.150;14.004;2023-02-12T06:11:50;100040.50;;;8.20;68.62
3260;BME280;22469;48.150;14.004;2023-02-12T06:14:19;100035.38;;;8.14;69.04
3260;BME280;22469;48.150;14.004;2023-02-12T06:16:48;100041.34;;;8.16;68.99
3260;BME280;22469;48.150;14.004;2023-02-12T06:19:17;100043.97;;;8.22;68.72
3260;BME280;22469;48.150;14.004;2023-02-12T06:21:45;100049.13;;;8.30;68.49
3260;BME280;22469;48.150;14.004;2023-02-12T06:24:13;100052.59;;;8.34;68.35
3260;BME280;22469;48.150;14.004;2023-02-12T06:26:42;100055.16;;;8.34;68.26
3260;BME280;22469;48.150;14.004;2023-02-12T06:29:09;100055.16;;;8.34;68.31
3260;BME280;22469;48.150;14.004;2023-02-12T06:31:37;100057.50;;;8.14;68.51
3260;BME280;22469;48.150;14.004;2023-02-12T06:34:08;100054.97;;;8.17;68.96
3260;BME280;22469;48.150;14.004;2023-02-12T06:36:39;100056.66;;;8.16;68.68
3260;BME280;22469;48.150;14.004;2023-02-12T06:39:07;100058.34;;;8.13;69.35
3260;BME280;22469;48.150;14.004;2023-02-12T06:41:34;100067.75;;;8.15;69.15
3260;BME280;22469;48.150;14.004;2023-02-12T06:44:02;100063.47;;;8.14;69.24
3260;BME280;22469;48.150;14.004;2023-02-12T06:46:30;100063.38;;;8.05;69.44
3260;BME280;22469;48.150;14.004;2023-02-12T06:48:59;100070.22;;;8.07;69.62
3260;BME280;22469;48.150;14.004;2023-02-12T06:51:27;100070.09;;;7.97;69.92
3260;BME280;22469;48.150;14.004;2023-02-12T06:53:56;100065.72;;;7.88;70.34
3260;BME280;22469;48.150;14.004;2023-02-12T06:56:24;100068.97;;;7.75;70.96
3260;BME280;22469;48.150;14.004;2023-02-12T06:58:55;100069.88;;;7.80;70.58
3260;BME280;22469;48.150;14.004;2023-02-12T07:01:26;100069.13;;;7.89;70.54
3260;BME280;22469;48.150;14.004;2023-02-12T07:04:00;100070.97;;;7.99;70.16
3260;BME280;22469;48.150;14.004;2023-02-12T07:06:29;100077.78;;;7.98;69.99
3260;BME280;22469;48.150;14.004;2023-02-12T07:08:57;100079.56;;;8.04;69.79
3260;BME280;22469;48.150;14.004;2023-02-12T07:11:26;100083.72;;;7.97;70.16
3260;BME280;22469;48.150;14.004;2023-02-12T07:13:58;100084.47;;;7.89;70.46
3260;BME280;22469;48.150;14.004;2023-02-12T07:16:26;100085.22;;;7.80;70.81
3260;BME280;22469;48.150;14.004;2023-02-12T07:18:53;100089.66;;;7.93;70.38
3260;BME280;22469;48.150;14.004;2023-02-12T07:21:20;100088.88;;;8.00;69.95
3260;BME280;22469;48.150;14.004;2023-02-12T07:23:50;100092.03;;;7.79;71.02
3260;BME280;22469;48.150;14.004;2023-02-12T07:26:19;100092.06;;;7.84;70.82
3260;BME280;22469;48.150;14.004;2023-02-12T07:28:48;100100.72;;;7.94;70.63
3260;BME280;22469;48.150;14.004;2023-02-12T07:31:18;100098.97;;;7.93;70.46
3260;BME280;22469;48.150;14.004;2023-02-12T07:33:54;100099.16;;;8.05;70.53
3260;BME280;22469;48.150;14.004;2023-02-12T07:36:23;100103.53;;;8.15;70.00
3260;BME280;22469;48.150;14.004;2023-02-12T07:38:53;100102.69;;;8.15;70.01
3260;BME280;22469;48.150;14.004;2023-02-12T07:41:23;100105.31;;;8.22;69.81
3260;BME280;22469;48.150;14.004;2023-02-12T07:44:03;100093.44;;;8.27;69.63
3260;BME280;22469;48.150;14.004;2023-02-12T07:46:36;100101.13;;;8.30;69.53
3260;BME280;22469;48.150;14.004;2023-02-12T07:49:11;100090.03;;;8.30;69.43
3260;BME280;22469;48.150;14.004;2023-02-12T07:51:41;100090.09;;;8.31;69.42
3260;BME280;22469;48.150;14.004;2023-02-12T07:54:09;100082.44;;;8.36;69.44
3260;BME280;22469;48.150;14.004;2023-02-12T07:56:39;100088.38;;;8.32;69.36
3260;BME280;22469;48.150;14.004;2023-02-12T07:59:10;100084.78;;;8.16;70.14
3260;BME280;22469;48.150;14.004;2023-02-12T08:01:41;100094.19;;;8.17;69.98
3260;BME280;22469;48.150;14.004;2023-02-12T08:04:14;100098.44;;;8.18;70.11
3260;BME280;22469;48.150;14.004;2023-02-12T08:06:45;100098.41;;;8.15;70.62
3260;BME280;22469;48.150;14.004;2023-02-12T08:09:17;100098.47;;;8.20;69.90
3260;BME280;22469;48.150;14.004;2023-02-12T08:11:45;100103.59;;;8.21;70.02
3260;BME280;22469;48.150;14.004;2023-02-12T08:14:15;100103.69;;;8.30;69.38
3260;BME280;22469;48.150;14.004;2023-02-12T08:16:45;100098.72;;;8.40;69.62
3260;BME280;22469;48.150;14.004;2023-02-12T08:19:13;100102.97;;;8.41;69.64
3260;BME280;22469;48.150;14.004;2023-02-12T08:21:51;100102.22;;;8.51;69.31
3260;BME280;22469;48.150;14.004;2023-02-12T08:24:19;100098.84;;;8.53;69.27
3260;BME280;22469;48.150;14.004;2023-02-12T08:26:49;100098.03;;;8.58;69.37
3260;BME280;22469;48.150;14.004;2023-02-12T08:29:19;100100.72;;;8.70;69.43
3260;BME280;22469;48.150;14.004;2023-02-12T08:31:54;100098.22;;;8.76;68.95
3260;BME280;22469;48.150;14.004;2023-02-12T08:34:29;100093.16;;;8.81;68.88
3260;BME280;22469;48.150;14.004;2023-02-12T08:45:01;100099.97;;;8.82;69.37
3260;BME280;22469;48.150;14.004;2023-02-12T08:47:28;100091.53;;;8.90;69.12
3260;BME280;22469;48.150;14.004;2023-02-12T08:49:56;100099.25;;;8.98;68.83
3260;BME280;22469;48.150;14.004;2023-02-12T08:52:23;100092.53;;;9.06;68.82
3260;BME280;22469;48.150;14.004;2023-02-12T08:54:50;100095.97;;;9.11;68.62
3260;BME280;22469;48.150;14.004;2023-02-12T08:57:17;100099.41;;;9.15;68.69
3260;BME280;22469;48.150;14.004;2023-02-12T08:59:44;100100.28;;;9.17;68.31
3260;BME280;22469;48.150;14.004;2023-02-12T09:02:12;100101.97;;;9.15;68.42
3260;BME280;22469;48.150;14.004;2023-02-12T09:04:39;100099.41;;;9.19;68.60
3260;BME280;22469;48.150;14.004;2023-02-12T09:07:06;100108.00;;;9.26;68.49
3260;BME280;22469;48.150;14.004;2023-02-12T09:09:36;100107.94;;;9.15;68.49
3260;BME280;22469;48.150;14.004;2023-02-12T09:12:03;100110.41;;;9.05;69.03
3260;BME280;22469;48.150;14.004;2023-02-12T09:14:31;100104.50;;;9.10;68.96
3260;BME280;22469;48.150;14.004;2023-02-12T09:16:58;100106.97;;;9.01;69.33
3260;BME280;22469;48.150;14.004;2023-02-12T09:19:25;100103.59;;;9.08;69.18
3260;BME280;22469;48.150;14.004;2023-02-12T09:21:53;100117.34;;;9.18;69.16
3260;BME280;22469;48.150;14.004;2023-02-12T09:24:24;100106.03;;;8.91;69.77
3260;BME280;22469;48.150;14.004;2023-02-12T09:26:53;100117.94;;;8.86;70.26
3260;BME280;22469;48.150;14.004;2023-02-12T09:29:21;100104.22;;;8.80;71.19
3260;BME280;22469;48.150;14.004;2023-02-12T09:31:48;100127.53;;;9.10;70.40
3260;BME280;22469;48.150;14.004;2023-02-12T09:34:15;100120.72;;;9.11;69.86
3260;BME280;22469;48.150;14.004;2023-02-12T09:36:42;100113.03;;;9.12;69.62
3260;BME280;22469;48.150;14.004;2023-02-12T09:39:09;100098.50;;;9.07;69.39
3260;BME280;22469;48.150;14.004;2023-02-12T09:45:15;100111.38;;;9.17;68.74
3260;BME280;22469;48.150;14.004;2023-02-12T09:47:57;100136.97;;;9.19;69.67
3260;BME280;22469;48.150;14.004;2023-02-12T09:53:14;100123.22;;;9.05;70.29
3260;BME280;22469;48.150;14.004;2023-02-12T09:55:43;100120.81;;;9.24;69.88
3260;BME280;22469;48.150;14.004;2023-02-12T10:01:14;100134.28;;;9.00;69.75
3260;BME280;22469;48.150;14.004;2023-02-12T10:03:45;100140.41;;;9.21;69.35
3260;BME280;22469;48.150;14.004;2023-02-12T10:06:18;100150.81;;;9.42;69.21
3260;BME280;22469;48.150;14.004;2023-02-12T10:09:09;100126.81;;;9.27;68.47
3260;BME280;22469;48.150;14.004;2023-02-12T10:26:51;100144.75;;;9.33;68.51
3260;BME280;22469;48.150;14.004;2023-02-12T10:29:36;100132.81;;;9.32;68.51
3260;BME280;22469;48.150;14.004;2023-02-12T10:32:24;100133.06;;;9.70;68.16
3260;BME280;22469;48.150;14.004;2023-02-12T10:34:55;100123.72;;;9.78;67.67
3260;BME280;22469;48.150;14.004;2023-02-12T10:40:05;100115.09;;;9.64;67.11
3260;BME280;22469;48.150;14.004;2023-02-12T10:43:00;100134.78;;;9.69;67.22
3260;BME280;22469;48.150;14.004;2023-02-12T10:45:32;100151.84;;;9.64;67.62
3260;BME280;22469;48.150;14.004;2023-02-12T10:53:44;100122.84;;;9.78;67.96
3260;BME280;22469;48.150;14.004;2023-02-12T10:58:59;100132.34;;;9.97;65.98
3260;BME280;22469;48.150;14.004;2023-02-12T11:01:30;100116.03;;;9.80;66.21
3260;BME280;22469;48.150;14.004;2023-02-12T11:04:26;100128.09;;;9.96;66.79
3260;BME280;22469;48.150;14.004;2023-02-12T11:07:02;100117.06;;;10.18;65.28
3260;BME280;22469;48.150;14.004;2023-02-12T11:09:42;100123.88;;;10.15;65.12
3260;BME280;22469;48.150;14.004;2023-02-12T11:15:15;100117.88;;;10.05;64.88
3260;BME280;22469;48.150;14.004;2023-02-12T11:17:57;100109.38;;;10.21;64.64
3260;BME280;22469;48.150;14.004;2023-02-12T11:20:47;100095.72;;;10.23;64.35
3260;BME280;22469;48.150;14.004;2023-02-12T11:28:57;100099.19;;;10.26;64.68
3260;BME280;22469;48.150;14.004;2023-02-12T11:31:31;100084.66;;;10.27;64.49
3260;BME280;22469;48.150;14.004;2023-02-12T11:34:15;100077.84;;;10.36;63.78
3260;BME280;22469;48.150;14.004;2023-02-12T11:36:54;100088.97;;;10.46;63.60
3260;BME280;22469;48.150;14.004;2023-02-12T11:42:14;100090.69;;;10.53;63.04
3260;BME280;22469;48.150;14.004;2023-02-12T11:44:54;100108.66;;;10.73;63.09
3260;BME280;22469;48.150;14.004;2023-02-12T11:47:29;100079.53;;;10.39;63.23
3260;BME280;22469;48.150;14.004;2023-02-12T11:50:14;100072.56;;;10.07;64.81
3260;BME280;22469;48.150;14.004;2023-02-12T11:52:53;100084.69;;;10.47;63.52
3260;BME280;22469;48.150;14.004;2023-02-12T11:55:27;100072.72;;;10.47;63.53
3260;BME280;22469;48.150;14.004;2023-02-12T11:58:03;100089.78;;;10.31;63.66
3260;BME280;22469;48.150;14.004;2023-02-12T12:01:13;100110.19;;;10.05;64.68
3260;BME280;22469;48.150;14.004;2023-02-12T12:06:21;100078.69;;;10.34;63.44
3260;BME280;22469;48.150;14.004;2023-02-12T12:09:15;100061.63;;;10.50;63.47
3260;BME280;22469;48.150;14.004;2023-02-12T12:14:46;100058.19;;;10.48;62.69
3260;BME280;22469;48.150;14.004;2023-02-12T12:23:53;100065.03;;;10.62;62.81
3260;BME280;22469;48.150;14.004;2023-02-12T12:26:27;100080.44;;;10.90;62.38
3260;BME280;22469;48.150;14.004;2023-02-12T12:29:25;100087.28;;;10.79;62.07
3260;BME280;22469;48.150;14.004;2023-02-12T12:32:08;100061.63;;;10.50;62.59
3260;BME280;22469;48.150;14.004;2023-02-12T12:34:38;100075.34;;;10.84;62.48
3260;BME280;22469;48.150;14.004;2023-02-12T12:37:08;100079.59;;;10.83;61.99
3260;BME280;22469;48.150;14.004;2023-02-12T12:43:08;100056.50;;;11.05;61.71
3260;BME280;22469;48.150;14.004;2023-02-12T12:51:22;100062.44;;;11.30;60.24
3260;BME280;22469;48.150;14.004;2023-02-12T12:54:25;100037.53;;;11.56;59.97
3260;BME280;22469;48.150;14.004;2023-02-12T13:15:38;100044.22;;;12.08;58.69
3260;BME280;22469;48.150;14.004;2023-02-12T13:24:21;100045.94;;;12.00;57.94
3260;BME280;22469;48.150;14.004;2023-02-12T13:27:21;100033.88;;;12.13;57.62
3260;BME280;22469;48.150;14.004;2023-02-12T13:35:29;100036.56;;;11.93;57.23
3260;BME280;22469;48.150;14.004;2023-02-12T13:37:58;100045.13;;;12.01;57.51
3260;BME280;22469;48.150;14.004;2023-02-12T13:40:28;100043.31;;;12.15;57.54
3260;BME280;22469;48.150;14.004;2023-02-12T13:43:51;100051.69;;;12.46;57.08
3260;BME280;22469;48.150;14.004;2023-02-12T13:52:11;100042.78;;;12.90;55.95
3260;BME280;22469;48.150;14.004;2023-02-12T13:54:54;100041.09;;;12.89;55.41
3260;BME280;22469;48.150;14.004;2023-02-12T13:57:27;100031.72;;;12.77;55.53
3260;BME280;22469;48.150;14.004;2023-02-12T13:59:55;100038.50;;;12.92;55.41
3260;BME280;22469;48.150;14.004;2023-02-12T14:04:56;100008.34;;;12.99;54.94
3260;BME280;22469;48.150;14.004;2023-02-12T14:07:49;100021.97;;;13.12;54.49
3260;BME280;22469;48.150;14.004;2023-02-12T14:13:14;100023.81;;;12.99;54.98
3260;BME280;22469;48.150;14.004;2023-02-12T14:15:45;100013.78;;;12.67;55.08
3260;BME280;22469;48.150;14.004;2023-02-12T14:18:32;100027.50;;;12.72;55.26
3260;BME280;22469;48.150;14.004;2023-02-12T14:23:44;100017.13;;;12.79;55.06
3260;BME280;22469;48.150;14.004;2023-02-12T14:26:35;100010.28;;;12.74;54.74
3260;BME280;22469;48.150;14.004;2023-02-12T14:29:05;100012.00;;;12.76;54.75
3260;BME280;22469;48.150;14.004;2023-02-12T14:31:42;100018.81;;;12.84;55.11
3260;BME280;22469;48.150;14.004;2023-02-12T14:36:40;100013.69;;;12.77;55.18
3260;BME280;22469;48.150;14.004;2023-02-12T14:41:47;100017.25;;;12.61;55.56
3260;BME280;22469;48.150;14.004;2023-02-12T14:46:59;100021.47;;;12.73;55.72
3260;BME280;22469;48.150;14.004;2023-02-12T14:49:46;100024.94;;;12.72;55.18
3260;BME280;22469;48.150;14.004;2023-02-12T14:52:18;100022.38;;;12.69;55.29
3260;BME280;22469;48.150;14.004;2023-02-12T14:55:00;99995.88;;;12.53;55.20
3260;BME280;22469;48.150;14.004;2023-02-12T14:57:35;100002.75;;;12.51;55.40
3260;BME280;22469;48.150;14.004;2023-02-12T15:09:00;100011.28;;;12.62;55.19
3260;BME280;22469;48.150;14.004;2023-02-12T15:11:45;100024.03;;;12.71;55.31
3260;BME280;22469;48.150;14.004;2023-02-12T15:14:35;99998.41;;;12.59;55.49
3260;BME280;22469;48.150;14.004;2023-02-12T15:17:08;100013.78;;;12.68;55.57
3260;BME280;22469;48.150;14.004;2023-02-12T15:19:45;100026.72;;;12.61;55.83
3260;BME280;22469;48.150;14.004;2023-02-12T15:22:23;99991.69;;;12.41;55.77
3260;BME280;22469;48.150;14.004;2023-02-12T15:25:31;100019.03;;;12.56;55.84
3260;BME280;22469;48.150;14.004;2023-02-12T15:28:18;100033.56;;;12.63;56.11
3260;BME280;22469;48.150;14.004;2023-02-12T15:30:49;100013.94;;;12.51;56.00
3260;BME280;22469;48.150;14.004;2023-02-12T15:33:28;100019.03;;;12.56;55.75
3260;BME280;22469;48.150;14.004;2023-02-12T15:35:59;100018.19;;;12.52;55.87
3260;BME280;22469;48.150;14.004;2023-02-12T15:38:31;100015.69;;;12.40;56.02
3260;BME280;22469;48.150;14.004;2023-02-12T15:41:04;100034.56;;;12.44;56.08
3260;BME280;22469;48.150;14.004;2023-02-12T15:43:34;100029.47;;;12.33;55.71
3260;BME280;22469;48.150;14.004;2023-02-12T15:46:15;100016.72;;;12.18;56.28
3260;BME280;22469;48.150;14.004;2023-02-12T15:48:44;100032.19;;;12.12;56.71
3260;BME280;22469;48.150;14.004;2023-02-12T15:53:55;100027.16;;;11.81;57.22
3260;BME280;22469;48.150;14.004;2023-02-12T15:56:24;100032.34;;;11.73;57.49
3260;BME280;22469;48.150;14.004;2023-02-12T15:58:54;100034.91;;;11.66;57.72
3260;BME280;22469;48.150;14.004;2023-02-12T16:01:26;100024.72;;;11.47;57.99
3260;BME280;22469;48.150;14.004;2023-02-12T16:03:57;100056.41;;;11.52;58.21
3260;BME280;22469;48.150;14.004;2023-02-12T16:06:32;100051.31;;;11.38;58.31
3260;BME280;22469;48.150;14.004;2023-02-12T16:09:05;100054.75;;;11.27;58.63
3260;BME280;22469;48.150;14.004;2023-02-12T16:11:34;100051.34;;;11.12;59.00
3260;BME280;22469;48.150;14.004;2023-02-12T16:14:06;100062.47;;;11.08;59.05
3260;BME280;22469;48.150;14.004;2023-02-12T16:16:43;100059.91;;;10.96;59.32
3260;BME280;22469;48.150;14.004;2023-02-12T16:19:20;100039.38;;;10.78;59.34
3260;BME280;22469;48.150;14.004;2023-02-12T16:22:06;100059.94;;;10.70;59.75
3260;BME280;22469;48.150;14.004;2023-02-12T16:24:55;100046.19;;;10.56;59.61
3260;BME280;22469;48.150;14.004;2023-02-12T16:27:32;100065.00;;;10.49;60.75
3260;BME280;22469;48.150;14.004;2023-02-12T16:33:33;100072.66;;;10.32;60.63
3260;BME280;22469;48.150;14.004;2023-02-12T16:39:03;100078.59;;;10.14;61.38
3260;BME280;22469;48.150;14.004;2023-02-12T16:41:32;100075.97;;;10.03;61.17